sensor_id;sensor_type;location;lat;lon;timestamp;pressure;altitude;pressure_sealevel;temperature;humidity
36284;BME280;56085;48.910;9.478;2023-07-08T00:01:40;98130.81;;;40.06;9.56
36284;BME280;56085;48.910;9.478;2023-07-08T00:04:06;98150.78;;;40.25;9.59
36284;BME280;56085;48.910;9.478;2023-07-08T00:06:32;98155.06;;;40.32;10.06
36284;BME280;56085;48.910;9.478;2023-07-08T00:08:58;98145.72;;;40.18;9.71
36284;BME280;56085;48.910;9.478;2023-07-08T00:11:29;98278.38;;;40.48;9.83
36284;BME280;56085;48.910;9.478;2023-07-08T00:13:54;98124.97;;;40.35;9.95
36284;BME280;56085;48.910;9.478;2023-07-08T00:16:20;98133.81;;;40.01;9.67
36284;BME280;56085;48.910;9.478;2023-07-08T00:18:45;98128.31;;;40.10;9.86
36284;BME280;56085;48.910;9.478;2023-07-08T00:21:15;98161.25;;;40.36;10.00
36284;BME280;56085;48.910;9.478;2023-07-08T00:23:50;98226.16;;;40.41;10.06
36284;BME280;56085;48.910;9.478;2023-07-08T00:26:21;98256.63;;;40.34;9.53
36284;BME280;56085;48.910;9.478;2023-07-08T00:28:47;98111.81;;;39.97;10.12
36284;BME280;56085;48.910;9.478;2023-07-08T00:31:12;98108.16;;;39.97;10.06
36284;BME280;56085;48.910;9.478;2023-07-08T00:33:38;98107.91;;;39.87;10.05
36284;BME280;56085;48.910;9.478;2023-07-08T00:36:10;98246.75;;;40.29;10.14
36284;BME280;56085;48.910;9.478;2023-07-08T00:38:36;98107.47;;;40.12;10.00
36284;BME280;56085;48.910;9.478;2023-07-08T00:43:41;98228.09;;;40.75;10.25
36284;BME280;56085;48.910;9.478;2023-07-08T00:46:25;98228.69;;;40.89;10.04
36284;BME280;56085;48.910;9.478;2023-07-08T00:49:14;98239.53;;;40.88;9.74
36284;BME280;56085;48.910;9.478;2023-07-08T00:51:40;98107.50;;;40.20;10.04
36284;BME280;56085;48.910;9.478;2023-07-08T00:54:14;98259.94;;;40.09;9.91
36284;BME280;56085;48.910;9.478;2023-07-08T00:56:48;98260.34;;;40.13;10.12
36284;BME280;56085;48.910;9.478;2023-07-08T00:59:25;98241.97;;;40.11;10.24
36284;BME280;56085;48.910;9.478;2023-07-08T01:01:53;98187.28;;;39.71;10.20
36284;BME280;56085;48.910;9.478;2023-07-08T01:04:25;98265.66;;;40.02;10.23
36284;BME280;56085;48.910;9.478;2023-07-08T01:06:56;98230.34;;;39.82;10.27
36284;BME280;56085;48.910;9.478;2023-07-08T01:09:30;98271.47;;;40.02;10.03
36284;BME280;56085;48.910;9.478;2023-07-08T01:11:58;98243.28;;;40.02;10.28
36284;BME280;56085;48.910;9.478;2023-07-08T01:14:29;98248.50;;;40.04;10.24
36284;BME280;56085;48.910;9.478;2023-07-08T01:16:57;98140.56;;;39.67;10.47
36284;BME280;56085;48.910;9.478;2023-07-08T01:19:23;98139.22;;;39.68;10.33
36284;BME280;56085;48.910;9.478;2023-07-08T01:24:23;98129.53;;;39.44;10.38
36284;BME280;56085;48.910;9.478;2023-07-08T01:26:49;98130.72;;;39.20;10.41
36284;BME280;56085;48.910;9.478;2023-07-08T01:29:14;98140.63;;;39.11;10.48
36284;BME280;56085;48.910;9.478;2023-07-08T01:31:40;98130.56;;;39.25;10.56
36284;BME280;56085;48.910;9.478;2023-07-08T01:34:06;98127.78;;;39.41;10.66
36284;BME280;56085;48.910;9.478;2023-07-08T01:36:38;98236.41;;;39.50;10.34
36284;BME280;56085;48.910;9.478;2023-07-08T01:39:05;98120.06;;;39.15;10.63
36284;BME280;56085;48.910;9.478;2023-07-08T01:41:30;98123.41;;;39.05;10.60
36284;BME280;56085;48.910;9.478;2023-07-08T01:43:55;98145.09;;;38.99;10.78
36284;BME280;56085;48.910;9.478;2023-07-08T01:46:24;98233.59;;;39.15;10.62
36284;BME280;56085;48.910;9.478;2023-07-08T01:49:01;98201.00;;;39.15;10.52
36284;BME280;56085;48.910;9.478;2023-07-08T01:51:27;98157.22;;;38.63;10.71
36284;BME280;56085;48.910;9.478;2023-07-08T01:53:52;98130.34;;;38.68;10.81
36284;BME280;56085;48.910;9.478;2023-07-08T01:56:18;98134.56;;;38.67;10.80
36284;BME280;56085;48.910;9.478;2023-07-08T01:58:43;98140.16;;;38.51;10.96
36284;BME280;56085;48.910;9.478;2023-07-08T02:01:09;98142.66;;;38.20;10.74
36284;BME280;56085;48.910;9.478;2023-07-08T02:03:35;98145.16;;;38.37;10.92
36284;BME280;56085;48.910;9.478;2023-07-08T02:06:01;98140.84;;;38.17;11.23
36284;BME280;56085;48.910;9.478;2023-07-08T02:08:26;98122.00;;;38.03;11.41
36284;BME280;56085;48.910;9.478;2023-07-08T02:10:53;98181.34;;;37.85;11.33
36284;BME280;56085;48.910;9.478;2023-07-08T02:13:20;98154.19;;;38.07;11.44
36284;BME280;56085;48.910;9.478;2023-07-08T02:15:46;98126.19;;;38.15;11.48
36284;BME280;56085;48.910;9.478;2023-07-08T02:18:11;98115.53;;;37.83;11.46
36284;BME280;56085;48.910;9.478;2023-07-08T02:20:36;98111.41;;;37.65;11.63
36284;BME280;56085;48.910;9.478;2023-07-08T02:23:02;98134.28;;;37.63;11.87
36284;BME280;56085;48.910;9.478;2023-07-08T02:25:27;98119.50;;;37.67;11.92
36284;BME280;56085;48.910;9.478;2023-07-08T02:27:53;98192.56;;;34.65;11.90
36284;BME280;56085;48.910;9.478;2023-07-08T02:30:24;98134.47;;;36.68;11.90
36284;BME280;56085;48.910;9.478;2023-07-08T02:32:50;98139.94;;;37.23;12.08
36284;BME280;56085;48.910;9.478;2023-07-08T02:35:23;98159.47;;;36.98;12.18
36284;BME280;56085;48.910;9.478;2023-07-08T02:37:49;98129.69;;;37.09;12.50
36284;BME280;56085;48.910;9.478;2023-07-08T02:40:14;98128.53;;;36.98;12.03
36284;BME280;56085;48.910;9.478;2023-07-08T02:42:40;98117.59;;;36.78;12.36
36284;BME280;56085;48.910;9.478;2023-07-08T02:45:05;98142.34;;;36.86;12.61
36284;BME280;56085;48.910;9.478;2023-07-08T02:47:31;98135.91;;;36.80;12.78
36284;BME280;56085;48.910;9.478;2023-07-08T02:49:56;98135.19;;;36.93;12.84
36284;BME280;56085;48.910;9.478;2023-07-08T02:52:21;98132.47;;;36.82;12.90
36284;BME280;56085;48.910;9.478;2023-07-08T02:54:47;98130.72;;;36.73;12.72
36284;BME280;56085;48.910;9.478;2023-07-08T02:57:12;98146.06;;;36.43;13.00
36284;BME280;56085;48.910;9.478;2023-07-08T02:59:37;98165.06;;;36.27;13.14
36284;BME280;56085;48.910;9.478;2023-07-08T03:02:03;98148.56;;;36.33;13.25
36284;BME280;56085;48.910;9.478;2023-07-08T03:04:29;98154.47;;;36.41;12.69
36284;BME280;56085;48.910;9.478;2023-07-08T03:06:55;98168.13;;;35.91;12.86
36284;BME280;56085;48.910;9.478;2023-07-08T03:09:20;98173.03;;;35.96;13.17
36284;BME280;56085;48.910;9.478;2023-07-08T03:11:46;98178.19;;;36.04;13.22
36284;BME280;56085;48.910;9.478;2023-07-08T03:14:11;98167.72;;;35.76;13.19
36284;BME280;56085;48.910;9.478;2023-07-08T03:16:36;98183.16;;;36.03;13.72
36284;BME280;56085;48.910;9.478;2023-07-08T03:19:02;98182.69;;;35.99;13.48
36284;BME280;56085;48.910;9.478;2023-07-08T03:21:27;98185.97;;;36.09;13.73
36284;BME280;56085;48.910;9.478;2023-07-08T03:23:53;98189.63;;;36.09;13.35
36284;BME280;56085;48.910;9.478;2023-07-08T03:26:20;98244.31;;;36.34;13.64
36284;BME280;56085;48.910;9.478;2023-07-08T03:28:46;98215.53;;;36.09;13.33
36284;BME280;56085;48.910;9.478;2023-07-08T03:31:12;98184.84;;;36.17;13.80
36284;BME280;56085;48.910;9.478;2023-07-08T03:33:38;98200.53;;;36.16;13.99
36284;BME280;56085;48.910;9.478;2023-07-08T03:36:04;98244.59;;;36.06;13.66
36284;BME280;56085;48.910;9.478;2023-07-08T03:38:29;98203.31;;;36.03;14.05
36284;BME280;56085;48.910;9.478;2023-07-08T03:40:55;98198.63;;;36.25;13.92
36284;BME280;56085;48.910;9.478;2023-07-08T03:43:20;98209.03;;;35.78;13.89
36284;BME280;56085;48.910;9.478;2023-07-08T03:45:46;98229.16;;;36.09;14.01
36284;BME280;56085;48.910;9.478;2023-07-08T03:48:12;98206.91;;;36.09;13.80
36284;BME280;56085;48.910;9.478;2023-07-08T03:50:37;98206.44;;;36.49;13.70
36284;BME280;56085;48.910;9.478;2023-07-08T03:53:03;98196.81;;;36.46;14.29
36284;BME280;56085;48.910;9.478;2023-07-08T03:55:29;98191.13;;;36.60;13.99
36284;BME280;56085;48.910;9.478;2023-07-08T03:57:54;98182.03;;;36.56;14.06
36284;BME280;56085;48.910;9.478;2023-07-08T04:00:19;98191.13;;;36.60;14.04
36284;BME280;56085;48.910;9.478;2023-07-08T04:02:46;98234.97;;;36.72;14.14
36284;BME280;56085;48.910;9.478;2023-07-08T04:05:22;98319.59;;;37.31;13.67
36284;BME280;56085;48.910;9.478;2023-07-08T04:07:48;98191.16;;;36.79;14.33
36284;BME280;56085;48.910;9.478;2023-07-08T04:10:14;98240.06;;;36.41;14.46
36284;BME280;56085;48.910;9.478;2023-07-08T04:12:40;98206.16;;;36.53;14.50
36284;BME280;56085;48.910;9.478;2023-07-08T04:15:10;98311.38;;;37.16;14.07
36284;BME280;56085;48.910;9.478;2023-07-08T04:17:41;98287.69;;;37.24;14.61
36284;BME280;56085;48.910;9.478;2023-07-08T04:20:14;98250.78;;;36.40;14.61
36284;BME280;56085;48.910;9.478;2023-07-08T04:22:39;98212.38;;;36.38;15.00
36284;BME280;56085;48.910;9.478;2023-07-08T04:25:05;98190.81;;;36.63;14.73
36284;BME280;56085;48.910;9.478;2023-07-08T04:27:31;98182.75;;;36.81;14.32
36284;BME280;56085;48.910;9.478;2023-07-08T04:29:56;98225.75;;;36.35;14.69
36284;BME280;56085;48.910;9.478;2023-07-08T04:32:21;98213.22;;;36.27;14.45
36284;BME280;56085;48.910;9.478;2023-07-08T04:34:50;98198.34;;;36.47;15.09
36284;BME280;56085;48.910;9.478;2023-07-08T04:37:15;98195.34;;;36.59;14.72
36284;BME280;56085;48.910;9.478;2023-07-08T04:39:40;98196.03;;;36.65;14.71
36284;BME280;56085;48.910;9.478;2023-07-08T04:42:06;98189.59;;;36.97;14.92
36284;BME280;56085;48.910;9.478;2023-07-08T04:44:31;98203.16;;;37.02;14.82
36284;BME280;56085;48.910;9.478;2023-07-08T04:46:58;98234.88;;;36.58;14.93
36284;BME280;56085;48.910;9.478;2023-07-08T04:49:24;98229.66;;;36.57;14.76
36284;BME280;56085;48.910;9.478;2023-07-08T04:51:50;98240.66;;;37.15;14.61
36284;BME280;56085;48.910;9.478;2023-07-08T04:54:16;98190.75;;;37.40;14.93
36284;BME280;56085;48.910;9.478;2023-07-08T04:56:45;98276.81;;;37.68;14.89
36284;BME280;56085;48.910;9.478;2023-07-08T04:59:16;98254.50;;;38.01;14.62
36284;BME280;56085;48.910;9.478;2023-07-08T05:01:42;98188.16;;;38.28;14.78
36284;BME280;56085;48.910;9.478;2023-07-08T05:04:10;98254.97;;;38.32;14.68
36284;BME280;56085;48.910;9.478;2023-07-08T05:06:36;98181.50;;;38.19;14.84
36284;BME280;56085;48.910;9.478;2023-07-08T05:09:02;98197.56;;;38.41;14.83
36284;BME280;56085;48.910;9.478;2023-07-08T05:11:28;98198.00;;;38.72;14.63
36284;BME280;56085;48.910;9.478;2023-07-08T05:13:54;98202.16;;;38.98;14.76
36284;BME280;56085;48.910;9.478;2023-07-08T05:16:20;98165.06;;;39.10;14.73
36284;BME280;56085;48.910;9.478;2023-07-08T05:18:46;98182.88;;;39.35;14.49
36284;BME280;56085;48.910;9.478;2023-07-08T05:21:11;98153.97;;;39.56;14.83
36284;BME280;56085;48.910;9.478;2023-07-08T05:23:37;98169.38;;;39.80;14.67
36284;BME280;56085;48.910;9.478;2023-07-08T05:26:04;98201.13;;;39.93;14.60
36284;BME280;56085;48.910;9.478;2023-07-08T05:28:30;98189.13;;;39.60;14.57
36284;BME280;56085;48.910;9.478;2023-07-08T05:30:56;98189.22;;;39.76;14.65
36284;BME280;56085;48.910;9.478;2023-07-08T05:33:23;98223.59;;;40.29;14.51
36284;BME280;56085;48.910;9.478;2023-07-08T05:35:49;98147.56;;;40.37;14.44
36284;BME280;56085;48.910;9.478;2023-07-08T05:38:14;98150.94;;;40.56;14.47
36284;BME280;56085;48.910;9.478;2023-07-08T05:40:39;98148.28;;;40.74;14.52
36284;BME280;56085;48.910;9.478;2023-07-08T05:43:04;98139.69;;;40.97;14.69
36284;BME280;56085;48.910;9.478;2023-07-08T05:45:30;98150.88;;;41.00;14.82
36284;BME280;56085;48.910;9.478;2023-07-08T05:47:55;98149.75;;;41.04;14.67
36284;BME280;56085;48.910;9.478;2023-07-08T05:50:20;98160.38;;;41.01;14.37
36284;BME280;56085;48.910;9.478;2023-07-08T05:52:46;98144.75;;;41.43;14.06
36284;BME280;56085;48.910;9.478;2023-07-08T05:55:11;98147.63;;;41.97;14.17
36284;BME280;56085;48.910;9.478;2023-07-08T05:57:36;98159.78;;;42.18;14.17
36284;BME280;56085;48.910;9.478;2023-07-08T06:00:03;98192.13;;;42.15;14.17
36284;BME280;56085;48.910;9.478;2023-07-08T06:02:28;98168.56;;;41.80;13.95
36284;BME280;56085;48.910;9.478;2023-07-08T06:04:53;98180.50;;;42.23;14.20
36284;BME280;56085;48.910;9.478;2023-07-08T06:07:19;98164.25;;;42.19;14.14
36284;BME280;56085;48.910;9.478;2023-07-08T06:09:44;98222.91;;;41.72;14.20
36284;BME280;56085;48.910;9.478;2023-07-08T06:12:10;98226.59;;;42.11;14.18
36284;BME280;56085;48.910;9.478;2023-07-08T06:14:35;98208.75;;;42.30;13.81
36284;BME280;56085;48.910;9.478;2023-07-08T06:17:00;98200.53;;;42.59;13.89
36284;BME280;56085;48.910;9.478;2023-07-08T06:19:26;98239.00;;;41.96;14.14
36284;BME280;56085;48.910;9.478;2023-07-08T06:21:51;98209.44;;;42.69;13.77
36284;BME280;56085;48.910;9.478;2023-07-08T06:24:16;98213.06;;;43.18;13.73
36284;BME280;56085;48.910;9.478;2023-07-08T06:26:42;98204.53;;;43.20;13.76
36284;BME280;56085;48.910;9.478;2023-07-08T06:29:07;98218.44;;;43.29;13.93
36284;BME280;56085;48.910;9.478;2023-07-08T06:31:33;98224.53;;;43.41;13.65
36284;BME280;56085;48.910;9.478;2023-07-08T06:33:59;98251.53;;;43.09;13.32
36284;BME280;56085;48.910;9.478;2023-07-08T06:36:25;98230.88;;;43.55;13.38
36284;BME280;56085;48.910;9.478;2023-07-08T06:38:50;98224.66;;;43.84;13.32
36284;BME280;56085;48.910;9.478;2023-07-08T06:41:15;98192.06;;;43.78;13.03
36284;BME280;56085;48.910;9.478;2023-07-08T06:43:41;98224.09;;;43.78;13.19
36284;BME280;56085;48.910;9.478;2023-07-08T06:46:06;98223.56;;;43.13;13.06
36284;BME280;56085;48.910;9.478;2023-07-08T06:48:32;98225.69;;;43.46;12.87
36284;BME280;56085;48.910;9.478;2023-07-08T06:50:57;98223.75;;;43.99;12.60
36284;BME280;56085;48.910;9.478;2023-07-08T06:53:22;98247.66;;;43.39;12.76
36284;BME280;56085;48.910;9.478;2023-07-08T06:55:49;98307.47;;;44.16;12.84
36284;BME280;56085;48.910;9.478;2023-07-08T06:58:14;98232.72;;;44.71;12.86
36284;BME280;56085;48.910;9.478;2023-07-08T07:00:43;98388.47;;;45.20;12.44
36284;BME280;56085;48.910;9.478;2023-07-08T07:03:09;98254.56;;;44.27;12.72
36284;BME280;56085;48.910;9.478;2023-07-08T07:05:35;98267.41;;;44.94;12.42
36284;BME280;56085;48.910;9.478;2023-07-08T07:08:01;98291.50;;;45.57;12.50
36284;BME280;56085;48.910;9.478;2023-07-08T07:10:27;98234.25;;;45.81;12.51
36284;BME280;56085;48.910;9.478;2023-07-08T07:12:52;98244.81;;;46.04;12.27
36284;BME280;56085;48.910;9.478;2023-07-08T07:15:17;98252.19;;;46.05;11.88
36284;BME280;56085;48.910;9.478;2023-07-08T07:17:42;98236.59;;;46.49;11.83
36284;BME280;56085;48.910;9.478;2023-07-08T07:20:08;98226.28;;;46.97;11.82
36284;BME280;56085;48.910;9.478;2023-07-08T07:22:33;98228.06;;;47.22;11.80
36284;BME280;56085;48.910;9.478;2023-07-08T07:24:59;98277.34;;;46.57;11.51
36284;BME280;56085;48.910;9.478;2023-07-08T07:27:24;98272.91;;;45.52;11.47
36284;BME280;56085;48.910;9.478;2023-07-08T07:29:50;98277.75;;;44.77;11.47
36284;BME280;56085;48.910;9.478;2023-07-08T07:32:17;98339.63;;;44.86;11.27
36284;BME280;56085;48.910;9.478;2023-07-08T07:34:46;98388.56;;;45.12;11.29
36284;BME280;56085;48.910;9.478;2023-07-08T07:37:13;98333.25;;;44.44;11.53
36284;BME280;56085;48.910;9.478;2023-07-08T07:39:39;98293.84;;;44.96;11.56
36284;BME280;56085;48.910;9.478;2023-07-08T07:42:04;98275.84;;;45.35;11.57
36284;BME280;56085;48.910;9.478;2023-07-08T07:44:30;98231.16;;;44.52;11.61
36284;BME280;56085;48.910;9.478;2023-07-08T07:46:55;98270.38;;;44.76;11.58
36284;BME280;56085;48.910;9.478;2023-07-08T07:49:21;98308.06;;;44.14;11.56
36284;BME280;56085;48.910;9.478;2023-07-08T07:51:46;98312.34;;;44.13;11.08
36284;BME280;56085;48.910;9.478;2023-07-08T07:54:12;98285.78;;;45.04;11.45
36284;BME280;56085;48.910;9.478;2023-07-08T07:56:37;98262.16;;;45.92;11.26
36284;BME280;56085;48.910;9.478;2023-07-08T07:59:03;98303.38;;;45.69;11.09
36284;BME280;56085;48.910;9.478;2023-07-08T08:01:28;98254.16;;;45.92;11.10
36284;BME280;56085;48.910;9.478;2023-07-08T08:03:53;98271.97;;;45.87;11.09
36284;BME280;56085;48.910;9.478;2023-07-08T08:06:18;98283.06;;;45.61;11.09
36284;BME280;56085;48.910;9.478;2023-07-08T08:08:44;98273.94;;;46.21;11.05
36284;BME280;56085;48.910;9.478;2023-07-08T08:11:10;98300.28;;;45.12;11.15
36284;BME280;56085;48.910;9.478;2023-07-08T08:13:36;98299.97;;;45.62;11.10
36284;BME280;56085;48.910;9.478;2023-07-08T08:16:02;98312.28;;;45.98;10.81
36284;BME280;56085;48.910;9.478;2023-07-08T08:18:27;98291.72;;;46.15;11.01
36284;BME280;56085;48.910;9.478;2023-07-08T08:20:52;98262.50;;;46.06;10.77
36284;BME280;56085;48.910;9.478;2023-07-08T08:23:18;98275.09;;;46.65;10.89
36284;BME280;56085;48.910;9.478;2023-07-08T08:25:43;98281.69;;;46.85;10.79
36284;BME280;56085;48.910;9.478;2023-07-08T08:28:09;98285.66;;;47.38;10.84
36284;BME280;56085;48.910;9.478;2023-07-08T08:30:35;98288.75;;;47.41;10.53
36284;BME280;56085;48.910;9.478;2023-07-08T08:33:00;98289.19;;;47.37;10.54
36284;BME280;56085;48.910;9.478;2023-07-08T08:35:26;98292.78;;;46.86;10.37
36284;BME280;56085;48.910;9.478;2023-07-08T08:37:51;98282.59;;;47.36;10.54
36284;BME280;56085;48.910;9.478;2023-07-08T08:40:19;98315.72;;;47.90;10.39
36284;BME280;56085;48.910;9.478;2023-07-08T08:42:51;98444.94;;;48.35;10.19
36284;BME280;56085;48.910;9.478;2023-07-08T08:45:19;98339.25;;;46.73;10.36
36284;BME280;56085;48.910;9.478;2023-07-08T08:47:49;98417.81;;;47.25;10.18
36284;BME280;56085;48.910;9.478;2023-07-08T08:50:54;98398.63;;;47.93;9.94
36284;BME280;56085;48.910;9.478;2023-07-08T08:53:21;98317.72;;;47.87;10.05
36284;BME280;56085;48.910;9.478;2023-07-08T08:55:56;98443.97;;;48.74;9.98
36284;BME280;56085;48.910;9.478;2023-07-08T08:58:36;98447.72;;;48.96;9.61
36284;BME280;56085;48.910;9.478;2023-07-08T09:01:22;98422.38;;;49.22;9.35
36284;BME280;56085;48.910;9.478;2023-07-08T09:03:51;98416.28;;;48.87;9.86
36284;BME280;56085;48.910;9.478;2023-07-08T09:06:27;98430.81;;;48.85;9.60
36284;BME280;56085;48.910;9.478;2023-07-08T09:08:54;98352.91;;;48.72;9.96
36284;BME280;56085;48.910;9.478;2023-07-08T09:14:15;98434.66;;;49.31;9.77
36284;BME280;56085;48.910;9.478;2023-07-08T09:16:54;98284.38;;;48.89;9.34
36284;BME280;56085;48.910;9.478;2023-07-08T09:19:35;98453.72;;;49.41;8.97
36284;BME280;56085;48.910;9.478;2023-07-08T09:22:08;98424.25;;;49.73;9.44
36284;BME280;56085;48.910;9.478;2023-07-08T09:24:45;98430.59;;;50.26;8.87
36284;BME280;56085;48.910;9.478;2023-07-08T09:27:13;98273.63;;;49.72;9.03
36284;BME280;56085;48.910;9.478;2023-07-08T09:29:38;98279.25;;;49.56;9.28
36284;BME280;56085;48.910;9.478;2023-07-08T09:32:24;98428.13;;;51.06;8.97
36284;BME280;56085;48.910;9.478;2023-07-08T09:34:51;98287.44;;;50.05;8.74
36284;BME280;56085;48.910;9.478;2023-07-08T09:37:32;98425.63;;;50.29;9.04
36284;BME280;56085;48.910;9.478;2023-07-08T09:39:59;98384.97;;;49.23;9.15
36284;BME280;56085;48.910;9.478;2023-07-08T09:42:32;98414.00;;;49.74;9.02
36284;BME280;56085;48.910;9.478;2023-07-08T09:45:00;98377.88;;;49.83;8.33
36284;BME280;56085;48.910;9.478;2023-07-08T09:47:36;98448.75;;;50.46;8.43
36284;BME280;56085;48.910;9.478;2023-07-08T09:50:04;98370.72;;;49.86;8.99
36284;BME280;56085;48.910;9.478;2023-07-08T09:52:41;98307.88;;;49.91;8.66
36284;BME280;56085;48.910;9.478;2023-07-08T09:55:10;98433.69;;;50.28;8.75
36284;BME280;56085;48.910;9.478;2023-07-08T09:57:36;98265.72;;;49.63;8.33
36284;BME280;56085;48.910;9.478;2023-07-08T10:00:13;98395.06;;;50.22;8.30
36284;BME280;56085;48.910;9.478;2023-07-08T10:02:53;98425.16;;;51.18;8.22
36284;BME280;56085;48.910;9.478;2023-07-08T10:05:23;98419.72;;;51.26;8.47
36284;BME280;56085;48.910;9.478;2023-07-08T10:07:53;98379.78;;;51.23;8.39
36284;BME280;56085;48.910;9.478;2023-07-08T10:10:34;98427.59;;;52.52;7.88
36284;BME280;56085;48.910;9.478;2023-07-08T10:13:04;98399.19;;;52.45;8.11
36284;BME280;56085;48.910;9.478;2023-07-08T10:15:41;98427.81;;;52.56;8.00
36284;BME280;56085;48.910;9.478;2023-07-08T10:18:14;98410.97;;;52.59;8.11
36284;BME280;56085;48.910;9.478;2023-07-08T10:21:05;98398.94;;;51.87;8.05
36284;BME280;56085;48.910;9.478;2023-07-08T10:26:37;98314.28;;;51.48;7.56
36284;BME280;56085;48.910;9.478;2023-07-08T10:29:24;98413.28;;;51.04;7.78
36284;BME280;56085;48.910;9.478;2023-07-08T10:37:28;98412.16;;;52.26;7.80
36284;BME280;56085;48.910;9.478;2023-07-08T10:42:47;98415.81;;;53.24;7.53
36284;BME280;56085;48.910;9.478;2023-07-08T10:45:21;98425.72;;;53.44;7.14
36284;BME280;56085;48.910;9.478;2023-07-08T11:02:25;98371.91;;;51.65;7.30
36284;BME280;56085;48.910;9.478;2023-07-08T11:08:07;98400.25;;;51.84;7.17
36284;BME280;56085;48.910;9.478;2023-07-08T11:10:42;98387.63;;;51.18;7.28
36284;BME280;56085;48.910;9.478;2023-07-08T11:13:18;98400.81;;;50.32;7.21
36284;BME280;56085;48.910;9.478;2023-07-08T11:21:10;98416.78;;;49.60;7.97
36284;BME280;56085;48.910;9.478;2023-07-08T11:23:42;98407.78;;;48.60;7.81
36284;BME280;56085;48.910;9.478;2023-07-08T11:28:59;98357.34;;;48.83;8.19
36284;BME280;56085;48.910;9.478;2023-07-08T11:31:27;98392.78;;;50.33;8.19
36284;BME280;56085;48.910;9.478;2023-07-08T11:33:55;98278.41;;;50.62;8.08
36284;BME280;56085;48.910;9.478;2023-07-08T11:36:23;98293.41;;;51.18;7.91
36284;BME280;56085;48.910;9.478;2023-07-08T11:38:53;98313.69;;;51.38;7.45
36284;BME280;56085;48.910;9.478;2023-07-08T11:41:21;98320.91;;;51.88;7.90
36284;BME280;56085;48.910;9.478;2023-07-08T11:43:51;98394.25;;;51.56;7.79
36284;BME280;56085;48.910;9.478;2023-07-08T11:46:23;98428.97;;;51.20;7.72
36284;BME280;56085;48.910;9.478;2023-07-08T11:48:52;98354.63;;;51.85;7.86
36284;BME280;56085;48.910;9.478;2023-07-08T11:51:30;98401.00;;;52.66;7.75
36284;BME280;56085;48.910;9.478;2023-07-08T11:54:29;98371.41;;;53.21;7.08
36284;BME280;56085;48.910;9.478;2023-07-08T11:57:06;98409.19;;;53.09;7.22
36284;BME280;56085;48.910;9.478;2023-07-08T11:59:38;98394.56;;;53.27;7.06
36284;BME280;56085;48.910;9.478;2023-07-08T12:02:18;98375.63;;;53.32;7.38
36284;BME280;56085;48.910;9.478;2023-07-08T12:05:12;98345.66;;;53.38;7.21
36284;BME280;56085;48.910;9.478;2023-07-08T12:07:50;98392.66;;;53.18;7.39
36284;BME280;56085;48.910;9.478;2023-07-08T12:10:37;98367.25;;;52.83;7.18
36284;BME280;56085;48.910;9.478;2023-07-08T12:13:12;98376.44;;;52.75;6.70
36284;BME280;56085;48.910;9.478;2023-07-08T12:15:38;98250.41;;;51.92;6.93
36284;BME280;56085;48.910;9.478;2023-07-08T12:18:15;98380.72;;;52.72;7.09
36284;BME280;56085;48.910;9.478;2023-07-08T12:20:44;98317.88;;;53.13;7.07
36284;BME280;56085;48.910;9.478;2023-07-08T12:23:28;98342.31;;;54.07;6.56
36284;BME280;56085;48.910;9.478;2023-07-08T12:25:56;98259.50;;;54.07;6.69
36284;BME280;56085;48.910;9.478;2023-07-08T12:28:23;98231.88;;;53.85;6.48
36284;BME280;56085;48.910;9.478;2023-07-08T12:30:50;98308.81;;;51.56;6.87
36284;BME280;56085;48.910;9.478;2023-07-08T12:33:27;98395.75;;;52.64;6.35
36284;BME280;56085;48.910;9.478;2023-07-08T12:35:54;98284.59;;;53.13;6.67
36284;BME280;56085;48.910;9.478;2023-07-08T12:38:31;98383.19;;;52.92;6.62
36284;BME280;56085;48.910;9.478;2023-07-08T12:41:00;98314.03;;;53.41;6.43
36284;BME280;56085;48.910;9.478;2023-07-08T12:43:26;98238.69;;;51.94;6.52
36284;BME280;56085;48.910;9.478;2023-07-08T12:45:51;98252.38;;;51.34;6.36
36284;BME280;56085;48.910;9.478;2023-07-08T12:48:17;98240.88;;;51.80;6.65
36284;BME280;56085;48.910;9.478;2023-07-08T12:50:42;98224.63;;;52.78;6.83
36284;BME280;56085;48.910;9.478;2023-07-08T12:53:10;98334.22;;;51.89;6.22
36284;BME280;56085;48.910;9.478;2023-07-08T12:55:39;98329.31;;;51.28;6.63
36284;BME280;56085;48.910;9.478;2023-07-08T12:58:13;98353.25;;;51.60;6.28
36284;BME280;56085;48.910;9.478;2023-07-08T13:00:40;98303.78;;;51.19;6.66
36284;BME280;56085;48.910;9.478;2023-07-08T13:03:15;98274.53;;;51.09;6.18
36284;BME280;56085;48.910;9.478;2023-07-08T13:05:42;98256.28;;;52.48;6.57
36284;BME280;56085;48.910;9.478;2023-07-08T13:08:13;98367.00;;;53.98;6.50
36284;BME280;56085;48.910;9.478;2023-07-08T13:10:39;98211.47;;;53.91;6.75
36284;BME280;56085;48.910;9.478;2023-07-08T13:13:08;98310.72;;;52.88;6.15
36284;BME280;56085;48.910;9.478;2023-07-08T13:15:37;98328.16;;;54.22;6.22
36284;BME280;56085;48.910;9.478;2023-07-08T13:18:15;98384.16;;;52.96;6.02
36284;BME280;56085;48.910;9.478;2023-07-08T13:20:43;98309.69;;;52.54;5.90
36284;BME280;56085;48.910;9.478;2023-07-08T13:23:09;98223.00;;;52.61;6.21
36284;BME280;56085;48.910;9.478;2023-07-08T13:25:37;98348.06;;;53.12;6.26
36284;BME280;56085;48.910;9.478;2023-07-08T13:31:00;98312.97;;;50.88;6.36
36284;BME280;56085;48.910;9.478;2023-07-08T13:33:30;98394.03;;;52.87;5.80
36284;BME280;56085;48.910;9.478;2023-07-08T13:35:56;98196.22;;;53.81;6.29
36284;BME280;56085;48.910;9.478;2023-07-08T13:38:24;98278.91;;;54.45;5.67
36284;BME280;56085;48.910;9.478;2023-07-08T13:40:54;98324.28;;;54.85;5.85
36284;BME280;56085;48.910;9.478;2023-07-08T13:43:24;98256.00;;;54.63;5.39
36284;BME280;56085;48.910;9.478;2023-07-08T13:45:50;98162.00;;;52.96;5.51
36284;BME280;56085;48.910;9.478;2023-07-08T13:48:37;98357.22;;;55.48;5.63
36284;BME280;56085;48.910;9.478;2023-07-08T13:56:13;98337.72;;;53.88;5.63
36284;BME280;56085;48.910;9.478;2023-07-08T13:58:47;98344.69;;;54.27;5.77
36284;BME280;56085;48.910;9.478;2023-07-08T14:01:24;98350.00;;;54.81;5.72
36284;BME280;56085;48.910;9.478;2023-07-08T14:03:52;98292.31;;;53.66;5.87
36284;BME280;56085;48.910;9.478;2023-07-08T14:06:23;98304.88;;;55.16;5.15